createdAt,value
2023-05-22T00:02:28.168Z,4.40
2023-05-22T00:05:26.398Z,4.15
2023-05-22T00:08:05.284Z,4.28
2023-05-22T00:10:37.786Z,4.70
2023-05-22T00:13:15.725Z,4.05
2023-05-22T00:15:47.876Z,4.20
2023-05-22T00:18:22.809Z,4.57
2023-05-22T00:20:55.019Z,4.57
2023-05-22T00:23:33.706Z,4.28
2023-05-22T00:26:05.991Z,4.28
2023-05-22T00:28:38.632Z,4.20
2023-05-22T00:31:12.639Z,4.47
2023-05-22T00:33:46.403Z,4.45
2023-05-22T00:36:35.766Z,4.10
2023-05-22T00:39:17.123Z,4.32
2023-05-22T00:41:55.231Z,4.68
2023-05-22T00:44:34.830Z,4.53
2023-05-22T00:47:39.142Z,4.43
2023-05-22T00:50:14.670Z,4.88
2023-05-22T00:52:49.030Z,4.45
2023-05-22T00:55:27.165Z,4.35
2023-05-22T00:58:08.423Z,5.15
2023-05-22T01:01:13.599Z,4.70
2023-05-22T01:03:47.525Z,4.35
2023-05-22T01:06:21.927Z,4.70
2023-05-22T01:08:55.064Z,4.55
2023-05-22T01:11:36.846Z,4.72
2023-05-22T01:14:28.064Z,3.97
2023-05-22T01:17:23.021Z,4.25
2023-05-22T01:23:30.908Z,4.30
2023-05-22T01:26:46.629Z,4.20
2023-05-22T01:29:35.566Z,4.00
2023-05-22T01:35:26.183Z,4.70
2023-05-22T01:38:02.873Z,4.28
2023-05-22T01:40:40.126Z,4.47
2023-05-22T01:43:12.526Z,4.70
2023-05-22T01:45:48.079Z,4.28
2023-05-22T01:48:25.111Z,4.53
2023-05-22T01:51:07.107Z,4.30
2023-05-22T01:53:46.643Z,7.97
2023-05-22T01:56:31.193Z,5.00
2023-05-22T01:59:12.587Z,4.30
2023-05-22T02:01:49.525Z,4.30
2023-05-22T02:04:26.647Z,4.25
2023-05-22T02:07:03.028Z,4.43
2023-05-22T02:09:36.967Z,4.50
2023-05-22T02:12:28.710Z,4.05
2023-05-22T02:15:03.790Z,3.85
2023-05-22T02:17:43.115Z,4.32
2023-05-22T02:20:19.186Z,4.30
2023-05-22T02:22:51.784Z,3.92
2023-05-22T02:25:40.567Z,4.00
2023-05-22T02:28:12.791Z,4.43
2023-05-22T02:30:44.742Z,4.30
2023-05-22T02:33:18.497Z,4.47
2023-05-22T02:35:53.274Z,4.22
2023-05-22T02:38:26.158Z,4.50
2023-05-22T02:40:58.224Z,4.63
2023-05-22T02:43:34.022Z,4.30
2023-05-22T02:46:05.980Z,4.57
2023-05-22T02:48:39.030Z,4.28
2023-05-22T02:51:15.270Z,4.25
2023-05-22T02:53:48.350Z,4.35
2023-05-22T02:56:21.877Z,4.60
2023-05-22T02:58:55.042Z,4.40
2023-05-22T03:01:27.295Z,4.70
2023-05-22T03:03:59.847Z,4.75
2023-05-22T03:06:35.627Z,4.70
2023-05-22T03:09:09.201Z,4.20
2023-05-22T03:11:41.342Z,4.50
2023-05-22T03:14:14.627Z,4.55
2023-05-22T03:16:46.988Z,4.50
2023-05-22T03:19:20.355Z,4.47
2023-05-22T03:21:55.120Z,4.63
2023-05-22T03:24:27.833Z,4.28
2023-05-22T03:26:59.987Z,4.60
2023-05-22T03:29:34.551Z,4.78
2023-05-22T03:32:06.730Z,4.40
2023-05-22T03:34:39.471Z,4.95
2023-05-22T03:37:14.611Z,4.60
2023-05-22T03:39:47.306Z,4.57
2023-05-22T03:42:19.794Z,4.32
2023-05-22T03:44:52.639Z,4.40
2023-05-22T03:47:24.670Z,4.47
2023-05-22T03:49:57.007Z,4.88
2023-05-22T03:52:31.648Z,4.70
2023-05-22T03:55:05.304Z,5.10
2023-05-22T03:57:37.458Z,4.78
2023-05-22T04:00:14.024Z,4.65
2023-05-22T04:06:07.921Z,4.38
2023-05-22T04:08:43.422Z,4.80
2023-05-22T04:14:25.272Z,4.95
2023-05-22T04:16:58.544Z,4.60
2023-05-22T04:19:31.538Z,4.97
2023-05-22T04:22:05.908Z,5.20
2023-05-22T04:24:43.623Z,4.60
2023-05-22T04:27:15.995Z,5.13
2023-05-22T04:29:48.702Z,4.70
2023-05-22T04:32:22.188Z,4.95
2023-05-22T04:34:54.744Z,4.90
2023-05-22T04:37:29.227Z,4.57
2023-05-22T04:40:11.763Z,5.03
2023-05-22T04:42:43.975Z,4.78
2023-05-22T04:45:20.102Z,4.72
2023-05-22T04:47:52.899Z,4.97
2023-05-22T04:50:25.976Z,4.88
2023-05-22T04:52:58.018Z,4.85
2023-05-22T04:55:47.006Z,4.93
2023-05-22T04:58:54.283Z,4.88
2023-05-22T05:01:30.986Z,4.95
2023-05-22T05:04:54.111Z,5.03
2023-05-22T05:07:27.025Z,5.28
2023-05-22T05:09:59.178Z,5.20
2023-05-22T05:12:34.999Z,5.15
2023-05-22T05:15:07.661Z,5.20
2023-05-22T05:17:40.666Z,5.32
2023-05-22T05:20:14.894Z,4.93
2023-05-22T05:22:47.758Z,5.43
2023-05-22T05:25:20.917Z,4.97
2023-05-22T05:27:56.949Z,5.38
2023-05-22T05:30:31.984Z,5.18
2023-05-22T05:33:05.151Z,5.25
2023-05-22T05:35:41.412Z,5.32
2023-05-22T05:38:17.632Z,4.88
2023-05-22T05:40:50.664Z,5.50
2023-05-22T05:43:26.749Z,5.40
2023-05-22T05:46:02.618Z,5.38
2023-05-22T05:48:35.406Z,5.35
2023-05-22T05:51:07.662Z,5.38
2023-05-22T05:53:41.315Z,5.03
2023-05-22T05:56:14.108Z,5.07
2023-05-22T05:58:49.642Z,5.40
2023-05-22T06:01:24.992Z,5.68
2023-05-22T06:04:00.338Z,5.45
2023-05-22T06:06:40.078Z,5.18
2023-05-22T06:09:16.435Z,5.45
2023-05-22T06:11:51.784Z,5.45
2023-05-22T06:14:31.646Z,5.30
2023-05-22T06:17:09.775Z,5.10
2023-05-22T06:19:42.796Z,5.68
2023-05-22T06:22:17.430Z,5.35
2023-05-22T06:24:53.155Z,5.72
2023-05-22T06:27:27.777Z,5.93
2023-05-22T06:30:04.806Z,5.25
2023-05-22T06:32:37.957Z,5.50
2023-05-22T06:35:12.532Z,5.70
2023-05-22T06:37:44.628Z,5.82
2023-05-22T06:40:17.556Z,5.28
2023-05-22T06:42:52.226Z,5.75
2023-05-22T06:45:28.375Z,6.00
2023-05-22T06:48:28.131Z,5.72
2023-05-22T06:51:01.641Z,6.40
2023-05-22T06:53:35.024Z,6.13
2023-05-22T06:56:12.450Z,5.18
2023-05-22T06:58:45.227Z,5.40
2023-05-22T07:01:22.311Z,5.60
2023-05-22T07:03:54.465Z,6.15
2023-05-22T07:06:28.189Z,5.57
2023-05-22T07:09:01.770Z,6.10
2023-05-22T07:11:41.008Z,6.63
2023-05-22T07:14:19.441Z,5.72
2023-05-22T07:17:13.384Z,6.45
2023-05-22T07:19:46.336Z,6.65
2023-05-22T07:22:22.332Z,5.82
2023-05-22T07:25:05.528Z,5.75
2023-05-22T07:27:41.628Z,5.40
2023-05-22T07:30:16.145Z,5.40
2023-05-22T07:32:53.550Z,5.38
2023-05-22T07:35:35.982Z,5.78
2023-05-22T07:38:12.142Z,5.72
2023-05-22T07:40:49.099Z,6.65
2023-05-22T07:43:51.868Z,5.15
2023-05-22T07:46:24.977Z,5.68
2023-05-22T07:49:04.006Z,5.30
2023-05-22T07:51:37.184Z,5.65
2023-05-22T07:54:11.029Z,5.38
2023-05-22T07:56:48.821Z,5.40
2023-05-22T07:59:28.750Z,5.63
2023-05-22T08:02:02.719Z,5.38
2023-05-22T08:04:42.658Z,5.65
2023-05-22T08:07:30.189Z,5.25
2023-05-22T08:13:08.660Z,5.10
2023-05-22T08:15:45.697Z,5.22
2023-05-22T08:18:21.945Z,4.97
2023-05-22T08:23:52.080Z,5.00
2023-05-22T08:26:37.578Z,5.22
2023-05-22T08:29:16.425Z,5.28
2023-05-22T08:34:51.300Z,5.13
2023-05-22T08:37:34.100Z,5.13
2023-05-22T08:43:20.816Z,5.65
2023-05-22T08:46:10.862Z,4.97
2023-05-22T08:49:07.291Z,4.60
2023-05-22T08:52:25.782Z,4.50
2023-05-22T08:55:36.705Z,5.40
2023-05-22T08:58:56.267Z,5.10
2023-05-22T09:08:30.422Z,4.78
2023-05-22T09:35:03.223Z,4.60
2023-05-22T09:46:34.907Z,4.55
2023-05-22T09:49:16.459Z,4.38
2023-05-22T09:52:19.194Z,4.20
2023-05-22T09:55:03.560Z,4.32
2023-05-22T09:57:51.713Z,4.50
2023-05-22T10:03:34.187Z,3.80
2023-05-22T10:06:13.659Z,3.95
2023-05-22T10:09:07.868Z,4.30
2023-05-22T10:11:45.242Z,4.25
2023-05-22T10:14:20.903Z,4.15
2023-05-22T10:17:00.602Z,4.20
2023-05-22T10:19:35.229Z,4.22
2023-05-22T10:22:10.509Z,4.20
2023-05-22T10:24:46.047Z,4.28
2023-05-22T10:27:22.172Z,4.30
2023-05-22T10:30:07.836Z,4.15
2023-05-22T10:32:54.170Z,4.30
2023-05-22T10:35:38.779Z,4.22
2023-05-22T10:41:59.360Z,4.13
2023-05-22T10:44:41.066Z,4.63
2023-05-22T11:00:22.278Z,4.05
2023-05-22T11:03:18.832Z,4.18
2023-05-22T11:08:48.325Z,4.00
2023-05-22T11:11:21.676Z,3.67
2023-05-22T11:14:18.473Z,3.97
2023-05-22T11:17:08.727Z,3.70
2023-05-22T11:22:51.530Z,3.90
2023-05-22T11:25:53.336Z,3.97
2023-05-22T11:31:33.830Z,4.28
2023-05-22T11:34:41.308Z,3.80
2023-05-22T11:37:26.571Z,4.15
2023-05-22T11:40:07.332Z,4.07
2023-05-22T11:42:41.207Z,3.95
2023-05-22T11:45:19.634Z,3.70
2023-05-22T12:04:21.608Z,3.50
2023-05-22T12:07:41.628Z,3.80
2023-05-22T12:10:27.521Z,3.40
2023-05-22T12:13:45.826Z,4.10
2023-05-22T12:16:29.424Z,3.67
2023-05-22T12:19:05.342Z,4.10
2023-05-22T12:21:42.556Z,3.40
2023-05-22T12:24:22.184Z,3.45
2023-05-22T12:27:13.281Z,4.22
2023-05-22T12:29:47.830Z,3.67
2023-05-22T12:32:27.705Z,3.85
2023-05-22T12:35:40.436Z,3.70
2023-05-22T12:38:36.234Z,3.35
2023-05-22T12:41:14.523Z,3.38
2023-05-22T12:44:26.414Z,3.50
2023-05-22T12:47:07.759Z,3.63
2023-05-22T12:49:54.594Z,3.45
2023-05-22T12:59:48.958Z,3.70
2023-05-22T13:12:08.951Z,3.45
2023-05-22T13:15:20.171Z,3.60
2023-05-22T13:18:19.969Z,3.90
2023-05-22T13:33:55.507Z,3.80
2023-05-22T13:36:37.474Z,3.70
2023-05-22T13:39:17.815Z,3.60
2023-05-22T13:42:00.124Z,3.15
2023-05-22T13:44:37.162Z,3.58
2023-05-22T13:47:26.413Z,3.45
2023-05-22T13:51:10.353Z,3.50
2023-05-22T13:54:10.449Z,3.75
2023-05-22T13:57:26.237Z,3.67
2023-05-22T14:00:42.073Z,3.75
2023-05-22T14:03:30.029Z,3.50
2023-05-22T14:09:25.975Z,3.40
2023-05-22T14:12:09.231Z,3.47
2023-05-22T14:34:35.882Z,3.45
2023-05-22T14:37:08.710Z,3.35
2023-05-22T14:39:42.353Z,4.20
2023-05-22T14:42:31.006Z,3.88
2023-05-22T14:45:22.002Z,3.80
2023-05-22T14:54:35.772Z,4.07
2023-05-22T15:11:06.195Z,3.60
2023-05-22T15:20:55.450Z,3.33
2023-05-22T15:23:30.603Z,3.45
2023-05-22T15:26:45.628Z,3.92
2023-05-22T15:29:27.502Z,3.70
2023-05-22T15:32:04.787Z,3.85
2023-05-22T15:34:43.162Z,4.00
2023-05-22T15:47:44.225Z,3.58
2023-05-22T15:51:02.193Z,3.60
2023-05-22T15:58:22.906Z,3.88
2023-05-22T16:04:59.496Z,3.53
2023-05-22T16:07:43.523Z,3.53
2023-05-22T16:10:49.713Z,6.03
2023-05-22T16:23:15.960Z,3.75
2023-05-22T16:43:46.463Z,3.83
2023-05-22T16:46:26.872Z,3.85
2023-05-22T16:49:10.533Z,4.35
2023-05-22T16:51:52.584Z,4.07
2023-05-22T16:54:55.535Z,3.88
2023-05-22T16:57:36.365Z,3.70
2023-05-22T17:00:35.212Z,3.53
2023-05-22T17:03:35.829Z,3.97
2023-05-22T17:06:23.611Z,3.60
2023-05-22T17:09:05.321Z,3.72
2023-05-22T17:11:45.395Z,3.80
2023-05-22T17:14:41.454Z,4.25
2023-05-22T17:17:44.072Z,3.80
2023-05-22T17:20:31.140Z,3.55
2023-05-22T17:23:09.680Z,3.90
2023-05-22T17:25:48.143Z,4.10
2023-05-22T17:28:26.618Z,3.40
2023-05-22T17:31:03.351Z,3.90
2023-05-22T17:33:50.162Z,4.10
2023-05-22T17:36:45.462Z,3.78
2023-05-22T17:39:42.570Z,3.60
2023-05-22T17:42:28.963Z,3.58
2023-05-22T17:48:49.282Z,3.97
2023-05-22T17:52:21.840Z,3.80
2023-05-22T17:55:30.138Z,3.75
2023-05-22T18:47:07.427Z,4.03
2023-05-22T18:49:45.827Z,3.97
2023-05-22T18:52:26.590Z,4.00
2023-05-22T18:55:07.669Z,4.05
2023-05-22T18:57:49.381Z,4.35
2023-05-22T19:00:33.381Z,3.55
2023-05-22T19:07:12.187Z,3.92
2023-05-22T19:09:58.677Z,3.95
2023-05-22T19:12:42.852Z,3.80
2023-05-22T19:16:08.199Z,3.78
2023-05-22T19:19:47.213Z,4.10
2023-05-22T19:32:24.384Z,4.47
2023-05-22T19:41:35.055Z,4.28
2023-05-22T19:44:15.047Z,4.40
2023-05-22T19:47:23.901Z,3.70
2023-05-22T19:53:25.620Z,3.97
2023-05-22T19:56:25.761Z,4.22
2023-05-22T19:59:06.434Z,4.10
2023-05-22T20:04:54.231Z,4.00
2023-05-22T20:11:05.154Z,3.65
2023-05-22T20:14:10.489Z,4.25
2023-05-22T20:22:51.251Z,4.43
2023-05-22T20:25:32.251Z,4.03
2023-05-22T20:32:25.789Z,3.95
2023-05-22T21:01:47.392Z,4.00
2023-05-22T21:07:28.818Z,4.00
2023-05-22T21:13:40.986Z,4.07
2023-05-22T21:22:31.520Z,4.43
2023-05-22T21:25:50.095Z,3.90
2023-05-22T21:28:55.034Z,4.15
2023-05-22T21:35:29.744Z,3.92
2023-05-22T21:38:10.350Z,4.40
2023-05-22T21:44:20.624Z,4.63
2023-05-22T21:53:06.025Z,4.78
2023-05-22T21:55:47.531Z,4.00
2023-05-22T21:58:25.211Z,4.30
2023-05-22T22:10:08.539Z,4.57
2023-05-22T22:12:54.025Z,4.72
2023-05-22T22:15:33.964Z,4.35
2023-05-22T22:18:18.641Z,4.50
2023-05-22T22:21:08.162Z,4.90
2023-05-22T22:23:51.997Z,5.05
2023-05-22T22:26:35.024Z,4.95
2023-05-22T22:29:14.483Z,4.93
2023-05-22T22:31:59.456Z,4.80
2023-05-22T22:35:03.894Z,4.35
2023-05-22T22:37:41.636Z,4.70
2023-05-22T22:40:20.119Z,4.88
2023-05-22T22:42:57.838Z,4.90
2023-05-22T22:45:39.002Z,4.30
2023-05-22T22:48:17.727Z,4.93
2023-05-22T22:53:59.594Z,4.85
2023-05-22T22:56:44.320Z,4.68
2023-05-22T22:59:43.994Z,4.68
2023-05-22T23:02:35.942Z,4.30
2023-05-22T23:05:23.769Z,4.55
2023-05-22T23:08:17.876Z,4.53
2023-05-22T23:10:54.715Z,4.93
2023-05-22T23:13:36.952Z,4.25
2023-05-22T23:16:26.982Z,4.32
2023-05-22T23:19:18.411Z,4.40
2023-05-22T23:22:16.426Z,4.30
2023-05-22T23:25:11.963Z,4.60
2023-05-22T23:27:48.915Z,4.43
2023-05-22T23:30:28.526Z,4.65
2023-05-22T23:33:09.717Z,4.30
2023-05-22T23:35:43.776Z,4.43
2023-05-22T23:38:17.470Z,4.63
2023-05-22T23:40:54.796Z,4.82
2023-05-22T23:43:26.723Z,4.45
2023-05-22T23:45:59.187Z,5.00
2023-05-22T23:48:31.982Z,4.43
2023-05-22T23:51:09.407Z,4.85
2023-05-22T23:53:41.765Z,4.65
2023-05-22T23:56:21.150Z,4.40
2023-05-22T23:58:53.234Z,4.78
